createdAt,value
2017-11-24T00:00:27.185Z,98656.30
2017-11-24T00:02:56.807Z,98654.03
2017-11-24T00:05:26.613Z,98661.16
2017-11-24T00:07:56.345Z,98667.30
2017-11-24T00:10:26.126Z,98663.41
2017-11-24T00:12:55.830Z,98667.99
2017-11-24T00:15:25.749Z,98670.29
2017-11-24T00:17:55.758Z,98666.72
2017-11-24T00:20:25.440Z,98662.35
2017-11-24T00:22:55.171Z,98658.31
2017-11-24T00:25:25.115Z,98651.46
2017-11-24T00:27:54.966Z,98658.41
2017-11-24T00:30:24.643Z,98662.94
2017-11-24T00:32:54.740Z,98657.10
2017-11-24T00:35:24.686Z,98659.53
2017-11-24T00:37:55.266Z,98665.05
2017-11-24T00:40:25.132Z,98655.47
2017-11-24T00:42:54.974Z,98652.80
2017-11-24T00:45:24.790Z,98655.65
2017-11-24T00:47:54.870Z,98652.35
2017-11-24T00:50:24.728Z,98647.61
2017-11-24T00:52:54.669Z,98648.28
2017-11-24T00:55:24.487Z,98649.56
2017-11-24T00:57:54.324Z,98657.95
2017-11-24T01:00:24.152Z,98655.97
2017-11-24T01:02:53.882Z,98660.13
2017-11-24T01:05:23.990Z,98663.50
2017-11-24T01:07:53.718Z,98666.18
2017-11-24T01:10:23.594Z,98659.84
2017-11-24T01:12:53.493Z,98663.55
2017-11-24T01:15:22.952Z,98668.92
2017-11-24T01:17:52.646Z,98668.38
2017-11-24T01:20:22.492Z,98671.73
2017-11-24T01:22:52.344Z,98666.98
2017-11-24T01:25:22.227Z,98673.11
2017-11-24T01:27:52.015Z,98664.58
2017-11-24T01:30:21.846Z,98669.73
2017-11-24T01:32:51.684Z,98669.41
2017-11-24T01:35:21.586Z,98664.29
2017-11-24T01:37:51.663Z,98669.20
2017-11-24T01:40:21.587Z,98665.70
2017-11-24T01:42:51.450Z,98664.63
2017-11-24T01:45:21.313Z,98664.95
2017-11-24T01:47:51.440Z,98667.16
2017-11-24T01:50:21.252Z,98668.03
2017-11-24T01:52:51.126Z,98669.48
2017-11-24T01:55:21.014Z,98667.16
2017-11-24T01:57:50.817Z,98663.44
2017-11-24T02:00:20.124Z,98662.78
2017-11-24T02:02:49.843Z,98663.69
2017-11-24T02:05:19.765Z,98665.42
2017-11-24T02:07:49.640Z,98663.98
2017-11-24T02:10:19.479Z,98666.27
2017-11-24T02:12:49.372Z,98661.58
2017-11-24T02:15:19.312Z,98669.41
2017-11-24T02:17:49.282Z,98668.88
2017-11-24T02:20:18.834Z,98669.33
2017-11-24T02:22:48.395Z,98666.59
2017-11-24T02:25:18.315Z,98667.47
2017-11-24T02:27:48.011Z,98666.14
2017-11-24T02:30:17.596Z,98660.44
2017-11-24T02:32:47.292Z,98666.31
2017-11-24T02:35:17.148Z,98650.92
2017-11-24T02:37:46.705Z,98659.86
2017-11-24T02:40:16.518Z,98659.81
2017-11-24T02:42:46.545Z,98648.02
2017-11-24T02:45:16.176Z,98650.09
2017-11-24T02:47:46.109Z,98652.61
2017-11-24T02:50:15.503Z,98662.17
2017-11-24T02:52:45.478Z,98658.36
2017-11-24T02:55:15.096Z,98655.58
2017-11-24T02:57:44.651Z,98660.80
2017-11-24T03:00:14.501Z,98665.81
2017-11-24T03:02:44.501Z,98662.38
2017-11-24T03:05:14.343Z,98659.41
2017-11-24T03:07:43.841Z,98655.34
2017-11-24T03:10:13.718Z,98657.78
2017-11-24T03:12:43.300Z,98659.73
2017-11-24T03:15:13.162Z,98666.02
2017-11-24T03:17:42.883Z,98672.00
2017-11-24T03:20:12.618Z,98673.58
2017-11-24T03:22:42.554Z,98671.58
2017-11-24T03:25:12.518Z,98668.88
2017-11-24T03:27:42.088Z,98666.36
2017-11-24T03:30:11.981Z,98668.20
2017-11-24T03:32:41.828Z,98669.53
2017-11-24T03:35:11.641Z,98667.95
2017-11-24T03:37:41.574Z,98657.53
2017-11-24T03:40:11.174Z,98658.53
2017-11-24T03:42:40.974Z,98658.36
2017-11-24T03:45:10.877Z,98659.98
2017-11-24T03:47:40.791Z,98658.11
2017-11-24T03:50:10.722Z,98659.06
2017-11-24T03:52:41.824Z,98663.90
2017-11-24T03:55:11.685Z,98664.39
2017-11-24T03:57:41.563Z,98666.05
2017-11-24T04:00:11.149Z,98669.19
2017-11-24T04:02:41.201Z,98669.41
2017-11-24T04:05:11.322Z,98679.36
2017-11-24T04:07:41.461Z,98674.23
2017-11-24T04:10:11.428Z,98679.04
2017-11-24T04:12:45.203Z,98673.28
2017-11-24T04:15:15.915Z,98666.53
2017-11-24T04:17:45.760Z,98662.84
2017-11-24T04:20:15.231Z,98655.39
2017-11-24T04:22:45.665Z,98652.63
2017-11-24T04:25:15.757Z,98650.05
2017-11-24T04:27:45.685Z,98644.85
2017-11-24T04:30:15.549Z,98656.64
2017-11-24T04:32:45.507Z,98656.66
2017-11-24T04:35:15.475Z,98644.95
2017-11-24T04:37:45.361Z,98647.03
2017-11-24T04:40:14.964Z,98644.90
2017-11-24T04:42:44.455Z,98649.58
2017-11-24T04:45:14.437Z,98650.63
2017-11-24T04:47:44.677Z,98645.33
2017-11-24T04:50:14.568Z,98650.51
2017-11-24T04:52:44.443Z,98651.31
2017-11-24T04:55:14.333Z,98652.19
2017-11-24T04:57:44.273Z,98646.13
2017-11-24T05:00:14.470Z,98643.79
2017-11-24T05:05:18.186Z,98634.28
2017-11-24T05:07:47.925Z,98630.31
2017-11-24T05:10:18.870Z,98631.95
2017-11-24T05:12:48.733Z,98625.30
2017-11-24T05:15:18.871Z,98626.38
2017-11-24T05:17:48.843Z,98620.70
2017-11-24T05:20:18.723Z,98621.23
2017-11-24T05:22:48.558Z,98623.84
2017-11-24T05:25:18.500Z,98621.69
2017-11-24T05:27:48.359Z,98618.55
2017-11-24T05:30:18.428Z,98621.04
2017-11-24T05:32:48.590Z,98619.86
2017-11-24T05:35:19.008Z,98616.98
2017-11-24T05:37:48.984Z,98619.13
2017-11-24T05:40:18.977Z,98624.84
2017-11-24T05:42:48.865Z,98628.53
2017-11-24T05:45:18.795Z,98628.07
2017-11-24T05:47:48.687Z,98625.42
2017-11-24T05:50:18.720Z,98627.78
2017-11-24T05:52:48.760Z,98623.89
2017-11-24T05:55:18.566Z,98620.83
2017-11-24T05:57:48.631Z,98629.27
2017-11-24T06:00:18.358Z,98629.92
2017-11-24T06:02:48.599Z,98615.81
2017-11-24T06:05:18.187Z,98633.70
2017-11-24T06:07:48.193Z,98639.86
2017-11-24T06:10:19.304Z,98642.14
2017-11-24T06:12:50.345Z,98650.61
2017-11-24T06:15:20.032Z,98660.45
2017-11-24T06:17:49.953Z,98663.08
2017-11-24T06:20:23.561Z,98653.23
2017-11-24T06:22:56.869Z,98655.66
2017-11-24T06:30:52.213Z,98657.13
2017-11-24T06:33:22.052Z,98662.02
2017-11-24T06:35:51.910Z,98657.63
2017-11-24T06:38:22.747Z,98655.19
2017-11-24T06:40:52.687Z,98651.14
2017-11-24T06:43:22.605Z,98650.41
2017-11-24T06:45:53.032Z,98647.98
2017-11-24T06:48:23.616Z,98647.77
2017-11-24T06:50:53.722Z,98652.28
2017-11-24T06:53:24.624Z,98650.80
2017-11-24T06:55:54.493Z,98649.39
2017-11-24T06:58:25.149Z,98657.09
2017-11-24T07:00:55.109Z,98655.97
2017-11-24T07:03:25.043Z,98654.38
2017-11-24T07:05:55.083Z,98654.60
2017-11-24T07:08:28.456Z,98653.53
2017-11-24T07:13:42.936Z,98661.09
2017-11-24T07:21:30.928Z,98654.92
2017-11-24T07:24:07.069Z,98648.11
2017-11-24T07:26:37.128Z,98643.08
2017-11-24T07:29:07.864Z,98652.89
2017-11-24T07:31:47.656Z,98656.17
2017-11-24T07:34:17.392Z,98659.72
2017-11-24T07:39:22.042Z,98652.70
2017-11-24T07:41:51.860Z,98651.52
2017-11-24T07:44:24.965Z,98654.42
2017-11-24T07:46:54.925Z,98658.00
2017-11-24T07:49:26.641Z,98649.06
2017-11-24T07:51:58.759Z,98658.12
2017-11-24T07:54:30.825Z,98654.95
2017-11-24T07:57:03.922Z,98654.51
2017-11-24T07:59:38.839Z,98652.48
2017-11-24T08:02:09.466Z,98648.82
2017-11-24T08:04:41.117Z,98640.81
2017-11-24T08:07:13.612Z,98642.06
2017-11-24T08:12:27.042Z,98643.91
2017-11-24T08:14:57.966Z,98643.00
2017-11-24T08:17:30.761Z,98648.41
2017-11-24T08:20:01.452Z,98644.48
2017-11-24T08:22:31.456Z,98637.88
2017-11-24T08:25:01.504Z,98637.27
2017-11-24T08:30:07.903Z,98638.20
2017-11-24T08:32:37.863Z,98645.45
2017-11-24T08:35:07.820Z,98645.77
2017-11-24T08:37:38.031Z,98645.19
2017-11-24T08:40:08.103Z,98655.56
2017-11-24T08:42:41.463Z,98656.45
2017-11-24T08:45:12.901Z,98654.66
2017-11-24T08:47:48.112Z,98658.98
2017-11-24T08:50:17.729Z,98648.94
2017-11-24T08:52:47.736Z,98655.20
2017-11-24T08:55:17.611Z,98640.25
2017-11-24T08:57:47.525Z,98633.70
2017-11-24T09:00:17.374Z,98643.94
2017-11-24T09:02:47.638Z,98642.20
2017-11-24T09:05:17.661Z,98640.12
2017-11-24T09:07:47.789Z,98640.89
2017-11-24T09:10:17.676Z,98647.40
2017-11-24T09:12:47.571Z,98637.54
2017-11-24T09:15:17.493Z,98636.00
2017-11-24T09:17:47.258Z,98641.28
2017-11-24T09:20:17.639Z,98633.42
2017-11-24T09:22:47.257Z,98638.78
2017-11-24T09:25:17.178Z,98635.90
2017-11-24T09:27:47.137Z,98632.14
2017-11-24T09:30:16.982Z,98635.72
2017-11-24T09:32:46.751Z,98633.98
2017-11-24T09:35:16.615Z,98636.95
2017-11-24T09:37:47.138Z,98634.48
2017-11-24T09:40:18.435Z,98628.75
2017-11-24T09:42:48.382Z,98626.27
2017-11-24T09:52:25.148Z,98616.11
2017-11-24T09:54:55.126Z,98623.11
2017-11-24T09:57:24.528Z,98612.80
2017-11-24T09:59:54.136Z,98607.02
2017-11-24T10:02:23.768Z,98608.07
2017-11-24T10:04:55.008Z,98609.61
2017-11-24T10:07:25.400Z,98611.48
2017-11-24T10:09:56.735Z,98612.02
2017-11-24T10:12:26.622Z,98617.38
2017-11-24T10:14:56.191Z,98608.09
2017-11-24T10:17:25.819Z,98607.59
2017-11-24T10:19:55.758Z,98601.51
2017-11-24T10:22:31.155Z,98597.00
2017-11-24T10:25:01.898Z,98594.73
2017-11-24T10:27:31.935Z,98594.69
2017-11-24T10:30:01.702Z,98581.73
2017-11-24T10:32:31.120Z,98579.20
2017-11-24T10:35:05.144Z,98572.90
2017-11-24T10:37:35.783Z,98575.90
2017-11-24T10:40:05.311Z,98567.39
2017-11-24T10:42:38.034Z,98555.36
2017-11-24T10:45:13.904Z,98557.58
2017-11-24T10:47:46.164Z,98560.08
2017-11-24T10:50:15.587Z,98558.34
2017-11-24T10:52:50.147Z,98558.86
2017-11-24T10:55:19.827Z,98561.28
2017-11-24T10:57:49.918Z,98562.32
2017-11-24T11:00:21.965Z,98561.89
2017-11-24T11:02:51.517Z,98552.80
2017-11-24T11:05:21.972Z,98551.48
2017-11-24T11:07:51.617Z,98548.47
2017-11-24T11:10:21.704Z,98557.21
2017-11-24T11:12:51.652Z,98545.84
2017-11-24T11:15:21.407Z,98547.15
2017-11-24T11:17:51.296Z,98549.18
2017-11-24T11:20:20.697Z,98543.72
2017-11-24T11:22:50.184Z,98539.24
2017-11-24T11:25:19.686Z,98534.53
2017-11-24T11:27:49.166Z,98533.08
2017-11-24T11:30:18.430Z,98530.98
2017-11-24T11:32:47.510Z,98530.43
2017-11-24T11:35:16.777Z,98520.72
2017-11-24T11:37:46.344Z,98525.59
2017-11-24T11:40:15.607Z,98515.61
2017-11-24T11:42:45.161Z,98514.89
2017-11-24T11:45:14.623Z,98513.89
2017-11-24T11:47:44.081Z,98509.92
2017-11-24T11:50:13.561Z,98501.03
2017-11-24T11:52:43.122Z,98499.50
2017-11-24T11:55:12.784Z,98491.52
2017-11-24T11:57:43.772Z,98499.09
2017-11-24T12:00:13.545Z,98486.81
2017-11-24T12:02:42.960Z,98491.22
2017-11-24T12:05:13.821Z,98499.47
2017-11-24T12:07:56.980Z,98496.02
2017-11-24T12:10:34.710Z,98498.87
2017-11-24T12:13:06.463Z,98494.24
2017-11-24T12:15:37.574Z,98492.35
2017-11-24T12:18:11.151Z,98493.55
2017-11-24T12:20:40.923Z,98489.50
2017-11-24T12:23:10.658Z,98493.19
2017-11-24T12:25:42.069Z,98480.88
2017-11-24T12:30:52.625Z,98470.38
2017-11-24T12:33:28.090Z,98467.00
2017-11-24T12:35:57.968Z,98460.56
2017-11-24T12:38:28.289Z,98458.34
2017-11-24T12:40:57.948Z,98457.70
2017-11-24T12:43:28.014Z,98449.77
2017-11-24T12:51:12.448Z,98450.56
2017-11-24T12:56:18.848Z,98446.67
2017-11-24T12:58:50.252Z,98444.59
2017-11-24T13:01:23.365Z,98447.31
2017-11-24T13:03:55.132Z,98449.01
2017-11-24T13:06:27.526Z,98444.86
2017-11-24T13:08:58.698Z,98442.30
2017-11-24T13:14:08.660Z,98439.37
2017-11-24T13:16:43.166Z,98433.00
2017-11-24T13:19:14.357Z,98440.52
2017-11-24T13:21:44.504Z,98427.38
2017-11-24T13:26:52.306Z,98427.54
2017-11-24T13:29:27.312Z,98433.69
2017-11-24T13:34:32.327Z,98418.23
2017-11-24T13:37:04.015Z,98421.03
2017-11-24T13:39:37.708Z,98420.21
2017-11-24T13:47:40.391Z,98415.61
2017-11-24T13:50:10.144Z,98408.41
2017-11-24T13:52:40.016Z,98409.23
2017-11-24T13:55:10.162Z,98420.36
2017-11-24T13:57:40.070Z,98408.63
2017-11-24T14:00:10.313Z,98415.42
2017-11-24T14:02:40.138Z,98418.88
2017-11-24T14:05:13.907Z,98426.75
2017-11-24T14:07:44.681Z,98437.73
2017-11-24T14:10:15.484Z,98439.70
2017-11-24T14:12:45.081Z,98444.05
2017-11-24T14:15:14.883Z,98433.73
2017-11-24T14:17:44.634Z,98430.05
2017-11-24T14:20:14.481Z,98429.91
2017-11-24T14:22:44.339Z,98431.84
2017-11-24T14:25:14.208Z,98441.59
2017-11-24T14:27:44.093Z,98441.60
2017-11-24T14:30:13.924Z,98440.48
2017-11-24T14:32:43.698Z,98440.11
2017-11-24T14:35:13.553Z,98441.57
2017-11-24T14:37:43.417Z,98447.74
2017-11-24T14:40:13.386Z,98437.93
2017-11-24T14:42:43.274Z,98436.55
2017-11-24T14:45:13.327Z,98442.86
2017-11-24T14:47:43.169Z,98442.39
2017-11-24T14:50:13.293Z,98438.69
2017-11-24T14:52:43.165Z,98428.48
2017-11-24T14:55:12.973Z,98436.67
2017-11-24T14:57:42.962Z,98432.84
2017-11-24T15:00:12.781Z,98431.31
2017-11-24T15:02:42.536Z,98427.39
2017-11-24T15:05:12.281Z,98434.58
2017-11-24T15:07:42.228Z,98432.55
2017-11-24T15:10:12.011Z,98434.81
2017-11-24T15:12:41.814Z,98440.48
2017-11-24T15:15:11.783Z,98439.84
2017-11-24T15:17:41.544Z,98445.60
2017-11-24T15:20:11.315Z,98448.03
2017-11-24T15:22:41.172Z,98443.04
2017-11-24T15:25:11.081Z,98448.92
2017-11-24T15:27:42.354Z,98445.86
2017-11-24T15:30:11.867Z,98445.77
2017-11-24T15:32:41.655Z,98443.84
2017-11-24T15:35:12.513Z,98440.59
2017-11-24T15:37:43.370Z,98444.78
2017-11-24T15:40:13.270Z,98434.94
2017-11-24T15:42:43.739Z,98437.64
2017-11-24T15:45:13.522Z,98438.46
2017-11-24T15:47:43.300Z,98442.16
2017-11-24T15:50:13.113Z,98444.09
2017-11-24T15:52:43.476Z,98447.49
2017-11-24T15:55:13.055Z,98457.83
2017-11-24T15:57:42.787Z,98457.34
2017-11-24T16:00:12.568Z,98456.20
2017-11-24T16:02:42.316Z,98453.31
2017-11-24T16:05:12.109Z,98458.03
2017-11-24T16:07:41.834Z,98458.13
2017-11-24T16:10:11.425Z,98452.60
2017-11-24T16:12:41.153Z,98455.28
2017-11-24T16:15:10.888Z,98455.97
2017-11-24T16:17:40.634Z,98460.48
2017-11-24T16:20:10.395Z,98456.70
2017-11-24T16:22:40.109Z,98458.53
2017-11-24T16:25:09.663Z,98458.63
2017-11-24T16:27:39.427Z,98455.47
2017-11-24T16:30:09.162Z,98456.91
2017-11-24T16:32:39.059Z,98451.16
2017-11-24T16:35:08.792Z,98454.56
2017-11-24T16:37:38.862Z,98448.31
2017-11-24T16:40:08.640Z,98446.34
2017-11-24T16:42:38.382Z,98446.46
2017-11-24T16:45:08.283Z,98439.98
2017-11-24T16:47:38.128Z,98449.39
2017-11-24T16:50:07.892Z,98454.59
2017-11-24T16:52:37.721Z,98460.80
2017-11-24T16:55:07.454Z,98466.85
2017-11-24T16:57:37.173Z,98465.41
2017-11-24T17:00:10.803Z,98459.75
2017-11-24T17:02:40.346Z,98455.76
2017-11-24T17:05:10.087Z,98449.62
2017-11-24T17:07:39.813Z,98442.48
2017-11-24T17:10:09.221Z,98444.86
2017-11-24T17:12:38.942Z,98449.32
2017-11-24T17:15:10.385Z,98444.11
2017-11-24T17:17:40.169Z,98444.70
2017-11-24T17:20:09.948Z,98448.67
2017-11-24T17:22:39.711Z,98442.45
2017-11-24T17:25:09.202Z,98450.72
2017-11-24T17:27:38.998Z,98463.64
2017-11-24T17:30:08.716Z,98458.73
2017-11-24T17:32:38.539Z,98465.64
2017-11-24T17:35:08.330Z,98464.10
2017-11-24T17:37:38.094Z,98470.70
2017-11-24T17:40:07.799Z,98468.78
2017-11-24T17:42:37.396Z,98466.54
2017-11-24T17:45:07.112Z,98468.80
2017-11-24T17:47:37.044Z,98475.86
2017-11-24T17:50:06.930Z,98481.27
2017-11-24T17:52:37.190Z,98484.13
2017-11-24T17:55:06.990Z,98480.23
2017-11-24T17:57:36.711Z,98481.16
2017-11-24T18:00:06.200Z,98481.91
2017-11-24T18:02:35.770Z,98481.38
2017-11-24T18:05:05.554Z,98485.98
2017-11-24T18:07:35.085Z,98484.48
2017-11-24T18:10:04.835Z,98480.91
2017-11-24T18:12:34.096Z,98478.53
2017-11-24T18:15:03.910Z,98478.05
2017-11-24T18:17:33.745Z,98471.56
2017-11-24T18:20:03.487Z,98479.45
2017-11-24T18:22:32.858Z,98470.47
2017-11-24T18:25:02.630Z,98475.26
2017-11-24T18:27:32.548Z,98465.00
2017-11-24T18:30:02.268Z,98467.69
2017-11-24T18:32:32.201Z,98476.04
2017-11-24T18:35:01.937Z,98471.33
2017-11-24T18:37:31.663Z,98462.87
2017-11-24T18:40:01.429Z,98461.36
2017-11-24T18:42:30.652Z,98468.80
2017-11-24T18:45:00.940Z,98471.36
2017-11-24T18:47:30.548Z,98469.83
2017-11-24T18:50:00.415Z,98476.65
2017-11-24T18:52:30.203Z,98475.45
2017-11-24T18:54:59.987Z,98480.18
2017-11-24T18:57:29.726Z,98483.19
2017-11-24T18:59:59.543Z,98487.99
2017-11-24T19:02:29.353Z,98490.33
2017-11-24T19:04:59.137Z,98481.51
2017-11-24T19:07:28.866Z,98473.23
2017-11-24T19:09:59.038Z,98464.92
2017-11-24T19:12:28.620Z,98471.27
2017-11-24T19:14:58.397Z,98472.62
2017-11-24T19:17:28.151Z,98474.05
2017-11-24T19:19:57.923Z,98462.77
2017-11-24T19:22:27.700Z,98465.73
2017-11-24T19:24:57.483Z,98461.92
2017-11-24T19:27:26.742Z,98463.38
2017-11-24T19:29:56.479Z,98465.92
2017-11-24T19:32:25.904Z,98482.55
2017-11-24T19:34:55.463Z,98480.50
2017-11-24T19:37:24.890Z,98488.16
2017-11-24T19:39:54.622Z,98484.50
2017-11-24T19:42:24.383Z,98488.81
2017-11-24T19:44:54.211Z,98496.20
2017-11-24T19:47:24.066Z,98489.49
2017-11-24T19:49:53.828Z,98489.05
2017-11-24T19:52:23.595Z,98489.38
2017-11-24T19:54:53.269Z,98488.05
2017-11-24T19:57:23.004Z,98489.80
2017-11-24T19:59:52.836Z,98470.62
2017-11-24T20:02:22.569Z,98470.63
2017-11-24T20:04:52.210Z,98469.81
2017-11-24T20:07:21.938Z,98479.67
2017-11-24T20:09:53.022Z,98485.51
2017-11-24T20:14:57.486Z,98491.91
2017-11-24T20:17:28.209Z,98489.01
2017-11-24T20:22:39.994Z,98487.88
2017-11-24T20:25:09.827Z,98495.31
2017-11-24T20:27:39.564Z,98485.26
2017-11-24T20:30:09.367Z,98484.84
2017-11-24T20:32:39.275Z,98472.61
2017-11-24T20:35:09.025Z,98468.84
2017-11-24T20:37:38.764Z,98474.47
2017-11-24T20:40:08.412Z,98466.14
2017-11-24T20:42:38.205Z,98456.58
2017-11-24T20:45:08.176Z,98459.91
2017-11-24T20:47:37.929Z,98473.69
2017-11-24T20:50:07.681Z,98471.98
2017-11-24T20:52:37.546Z,98477.63
2017-11-24T20:55:07.289Z,98476.72
2017-11-24T20:57:37.117Z,98473.88
2017-11-24T21:00:07.060Z,98464.42
2017-11-24T21:02:36.969Z,98460.52
2017-11-24T21:05:07.292Z,98469.13
2017-11-24T21:07:37.864Z,98459.19
2017-11-24T21:10:08.593Z,98456.59
2017-11-24T21:12:38.759Z,98454.80
2017-11-24T21:15:08.470Z,98453.56
2017-11-24T21:17:38.288Z,98443.72
2017-11-24T21:20:08.046Z,98436.03
2017-11-24T21:22:37.450Z,98429.05
2017-11-24T21:25:07.179Z,98427.64
2017-11-24T21:27:36.944Z,98437.97
2017-11-24T21:30:06.859Z,98445.75
2017-11-24T21:32:36.672Z,98453.95
2017-11-24T21:35:06.454Z,98454.82
2017-11-24T21:37:40.772Z,98445.27
2017-11-24T21:40:10.493Z,98449.81
2017-11-24T21:42:40.236Z,98446.07
2017-11-24T21:45:09.985Z,98452.78
2017-11-24T21:47:40.772Z,98457.38
2017-11-24T21:50:10.524Z,98467.41
2017-11-24T21:52:40.291Z,98466.46
2017-11-24T21:55:11.999Z,98458.38
2017-11-24T21:57:42.668Z,98456.87
2017-11-24T22:00:12.398Z,98462.59
2017-11-24T22:02:42.315Z,98460.02
2017-11-24T22:05:12.063Z,98464.13
2017-11-24T22:07:42.316Z,98465.09
2017-11-24T22:10:12.063Z,98475.13
2017-11-24T22:12:41.875Z,98472.38
2017-11-24T22:15:11.639Z,98469.97
2017-11-24T22:17:41.425Z,98475.89
2017-11-24T22:20:11.238Z,98479.52
2017-11-24T22:22:41.010Z,98475.81
2017-11-24T22:25:14.584Z,98477.00
2017-11-24T22:27:44.349Z,98474.98
2017-11-24T22:30:14.530Z,98465.11
2017-11-24T22:32:44.080Z,98463.89
2017-11-24T22:35:13.657Z,98460.09
2017-11-24T22:37:43.783Z,98457.52
2017-11-24T22:40:13.873Z,98461.91
2017-11-24T22:42:47.787Z,98458.33
2017-11-24T22:45:18.006Z,98453.94
2017-11-24T22:47:48.655Z,98461.77
2017-11-24T22:50:22.391Z,98452.84
2017-11-24T22:52:52.236Z,98447.66
2017-11-24T22:55:21.817Z,98450.50
2017-11-24T22:57:51.391Z,98439.66
2017-11-24T23:00:21.199Z,98442.03
2017-11-24T23:02:50.939Z,98440.41
2017-11-24T23:05:20.946Z,98437.66
2017-11-24T23:07:50.724Z,98440.41
2017-11-24T23:10:20.130Z,98448.46
2017-11-24T23:12:49.921Z,98448.84
2017-11-24T23:15:19.738Z,98443.63
2017-11-24T23:17:49.484Z,98444.27
2017-11-24T23:20:19.287Z,98441.92
2017-11-24T23:22:49.026Z,98447.56
2017-11-24T23:25:19.630Z,98442.97
2017-11-24T23:27:49.370Z,98447.16
2017-11-24T23:30:19.756Z,98439.48
2017-11-24T23:32:49.473Z,98449.00
2017-11-24T23:35:19.040Z,98447.88
2017-11-24T23:37:48.780Z,98451.98
2017-11-24T23:40:18.603Z,98451.78
2017-11-24T23:42:48.202Z,98450.95
2017-11-24T23:45:17.977Z,98457.41
2017-11-24T23:47:47.787Z,98447.36
2017-11-24T23:50:17.534Z,98435.58
2017-11-24T23:52:47.298Z,98423.91
2017-11-24T23:55:17.062Z,98419.70
2017-11-24T23:57:47.028Z,98405.92
